Airfield :
LOGIN :

Register | Disclaimer

   EN    FR    IT 

 










Legend :    VFR   Marginal VFR   IFR   Intensive IFR   Very Intensive IFR
Visi :
Ceiling :
>= 8 km
>= 3000ft
5 to 8 km
1000 to 3000 ft
1500m to 5 km
500 to 1000 ft
800 to 1500m
200 to 500 ft
< 800m
< 200 ft
Symbols :   Thunderstorms  Fog  Heavy snow  Heavy precipitations  Wind > 20 kt
SIGMETs :     Misc.  Thunderstorms  Icing  Turbulence  Mountain Waves  Volcanic Ashes







- Airport Elevation : 36 ft
- IATA code : LTQ
- Download approach charts


LFAT - Le Touquet

CURRENT METAR :
  • 221800Z AUTO 31007KT 270V340 9999 NCD 22/14 Q1016 NOSIG

EXPIRED METARs :
  • 221730Z AUTO 31006KT 280V340 9999 NCD 22/15 Q1016 NOSIG
  • 221700Z AUTO 29006KT 260V320 9999 NCD 22/16 Q1016 NOSIG
  • 221630Z AUTO 27007KT 230V310 9999 NCD 22/17 Q1016 NOSIG
  • 221600Z AUTO 28009KT 250V310 9999 NCD 23/16 Q1017 NOSIG
  • 221530Z AUTO 27008KT 240V310 CAVOK 22/17 Q1017 NOSIG

TAF TAF LFAT
Valid from the 22 at 15:00 until the 23 at 00:00 UTC


221400Z 2215/2224 28010KT CAVOK
ATIS : +33 3 21 06 62 84
No reported NOTAMs for that airfield.



MET'MAP, your aeronautical weather chart ! - Copyright ORBIFLY December 2007 - Disclaimer

ORBIFLY MET'MAP TEAM :

Programming & Development : Alexandra Zaïnal
Concept & Development : Baudouin d'Aumeries
Co-Development & Prog : Marc-Olivier Méhu
Technical & hardware support : Manuel Goepfert

Contact : metmap@orbifly.com




SOURCES & CREDITS :

   NOAA